Time;durP1;ratioP1;P1;durP2;ratioP2;P2;SDS_P1;SDS_P2;PMS_P1;PMS_P2;Temp;Humidity;BMP_temperature;BMP_pressure;BME280_temperature;BME280_humidity;BME280_pressure;Samples;Min_cycle;Max_cycle;Signal;HPM_P1;HPM_P2
2022/03/13 00:00:59;;;;;;;5.25;3.78;;;20.50;50.50;;;;;;5097398;28;20056;-69
2022/03/13 00:03:26;;;;;;;6.15;3.08;;;20.50;50.50;;;;;;5098259;28;20048;-69
2022/03/13 00:05:53;;;;;;;5.55;3.20;;;20.50;50.30;;;;;;5097550;28;20056;-69
2022/03/13 00:08:30;;;;;;;5.97;3.80;;;20.60;50.30;;;;;;5097324;28;20044;-69
2022/03/13 00:10:58;;;;;;;5.97;2.47;;;20.50;50.20;;;;;;5097046;28;20096;-69
2022/03/13 00:13:31;;;;;;;4.70;2.60;;;20.50;50.10;;;;;;5097057;28;20064;-69
2022/03/13 00:16:03;;;;;;;4.57;3.23;;;20.50;50.00;;;;;;5097152;28;20044;-69
2022/03/13 00:18:31;;;;;;;6.45;3.65;;;20.50;50.00;;;;;;5079615;28;20039;-69
2022/03/13 00:21:03;;;;;;;4.90;3.30;;;20.40;49.90;;;;;;5096741;28;20066;-69
2022/03/13 00:23:31;;;;;;;6.05;3.47;;;20.60;50.00;;;;;;5096991;28;20037;-69
2022/03/13 00:25:57;;;;;;;4.53;3.08;;;20.40;50.00;;;;;;5096982;28;20036;-69
2022/03/13 00:28:23;;;;;;;6.05;3.40;;;20.50;50.00;;;;;;5097003;28;20048;-69
2022/03/13 00:30:50;;;;;;;5.57;3.40;;;20.40;49.90;;;;;;5079552;28;20036;-68
2022/03/13 00:33:16;;;;;;;4.38;2.78;;;20.30;49.90;;;;;;5096854;28;20064;-69
2022/03/13 00:35:43;;;;;;;5.65;3.05;;;20.40;49.90;;;;;;5079662;28;20071;-69
2022/03/13 00:38:09;;;;;;;6.63;3.35;;;20.30;49.90;;;;;;5096516;28;20032;-70
2022/03/13 00:40:36;;;;;;;5.90;3.35;;;20.40;49.90;;;;;;5096834;28;20040;-69
2022/03/13 00:43:04;;;;;;;6.07;2.95;;;20.30;49.90;;;;;;5096885;28;20040;-69
2022/03/13 00:45:30;;;;;;;6.35;2.85;;;20.30;49.80;;;;;;5096724;28;20066;-69
2022/03/13 00:47:57;;;;;;;5.65;3.13;;;20.20;49.80;;;;;;5079324;28;20046;-69
2022/03/13 00:50:24;;;;;;;6.72;3.22;;;20.20;49.80;;;;;;5096591;28;20044;-69
2022/03/13 00:52:50;;;;;;;6.68;3.70;;;20.40;50.00;;;;;;5096475;28;20040;-70
2022/03/13 00:55:16;;;;;;;6.18;4.00;;;20.30;49.90;;;;;;5096643;28;20051;-70
2022/03/13 00:57:43;;;;;;;5.75;3.42;;;20.30;49.80;;;;;;5096509;28;20072;-69
2022/03/13 01:00:13;;;;;;;5.38;3.80;;;20.30;49.80;;;;;;5096272;28;20032;-69
2022/03/13 01:02:42;;;;;;;5.13;4.00;;;20.30;49.70;;;;;;5096445;28;20481;-69
2022/03/13 01:05:12;;;;;;;5.78;3.22;;;20.30;49.70;;;;;;5096616;28;20055;-69
2022/03/13 01:07:39;;;;;;;5.75;3.53;;;20.20;49.70;;;;;;5096512;28;20041;-69
2022/03/13 01:10:07;;;;;;;5.68;3.25;;;20.10;49.80;;;;;;5078785;28;20055;-69
2022/03/13 01:12:34;;;;;;;6.05;3.53;;;20.10;49.70;;;;;;5096312;28;20051;-69
2022/03/13 01:15:00;;;;;;;5.85;4.35;;;20.10;49.80;;;;;;5096333;28;20064;-69
2022/03/13 01:17:26;;;;;;;6.47;4.32;;;20.20;49.70;;;;;;5099418;28;20066;-69
2022/03/13 01:19:53;;;;;;;8.65;3.95;;;20.20;49.90;;;;;;5100428;28;20048;-69
2022/03/13 01:22:19;;;;;;;9.82;3.78;;;20.10;49.80;;;;;;5100369;28;20040;-69
2022/03/13 01:24:46;;;;;;;5.88;4.95;;;20.10;49.80;;;;;;5100480;28;20054;-69
2022/03/13 01:27:15;;;;;;;6.50;4.03;;;20.10;49.80;;;;;;5100390;28;20044;-70
2022/03/13 01:29:43;;;;;;;12.18;4.95;;;20.10;49.80;;;;;;5083056;28;20040;-69
2022/03/13 01:32:12;;;;;;;5.57;4.75;;;20.20;49.70;;;;;;5100285;28;20064;-69
2022/03/13 01:34:47;;;;;;;7.20;4.88;;;20.20;49.50;;;;;;5100207;28;20056;-69
2022/03/13 01:37:27;;;;;;;8.23;4.57;;;20.30;49.50;;;;;;5100803;28;20048;-69
2022/03/13 01:39:56;;;;;;;7.47;4.68;;;20.20;49.40;;;;;;5100897;28;20037;-69
2022/03/13 01:42:22;;;;;;;6.20;4.00;;;20.20;49.40;;;;;;5100082;28;20127;-69
2022/03/13 01:44:49;;;;;;;8.80;4.90;;;20.30;49.50;;;;;;5099964;28;20044;-69
2022/03/13 01:47:17;;;;;;;6.70;4.25;;;20.20;49.40;;;;;;5100114;28;20044;-69
2022/03/13 01:49:43;;;;;;;7.10;4.50;;;20.20;49.40;;;;;;5099943;28;20070;-69
2022/03/13 01:52:09;;;;;;;7.25;4.45;;;20.20;49.50;;;;;;5082579;28;20056;-69
2022/03/13 01:54:35;;;;;;;8.38;4.20;;;20.10;49.60;;;;;;5099886;28;20053;-69
2022/03/13 01:57:02;;;;;;;5.88;3.60;;;20.10;49.60;;;;;;5099854;28;20089;-69
2022/03/13 01:59:32;;;;;;;6.25;4.05;;;20.00;49.60;;;;;;5099749;28;20048;-69
2022/03/13 02:01:58;;;;;;;8.10;3.97;;;20.10;49.70;;;;;;5078736;28;20080;-69
2022/03/13 02:04:27;;;;;;;7.15;4.22;;;20.00;49.60;;;;;;5079607;28;20045;-69
2022/03/13 02:06:58;;;;;;;6.30;4.18;;;20.00;49.60;;;;;;5078871;28;20052;-69
2022/03/13 02:09:26;;;;;;;5.65;4.05;;;19.90;49.60;;;;;;5079450;28;20055;-68
2022/03/13 02:11:54;;;;;;;4.47;3.97;;;19.90;49.60;;;;;;5079107;28;20037;-69
2022/03/13 02:14:22;;;;;;;6.70;4.43;;;20.00;49.40;;;;;;5079558;28;20044;-69
2022/03/13 02:16:51;;;;;;;8.25;4.03;;;20.10;49.40;;;;;;5079481;28;20043;-69
2022/03/13 02:19:17;;;;;;;7.20;4.03;;;20.00;49.20;;;;;;5079473;28;20110;-69
2022/03/13 02:21:49;;;;;;;5.20;3.97;;;19.90;49.10;;;;;;5079266;28;20248;-69
2022/03/13 02:24:19;;;;;;;10.57;4.53;;;20.10;49.10;;;;;;5079378;28;20045;-69
2022/03/13 02:26:56;;;;;;;8.80;4.65;;;20.00;49.10;;;;;;5079418;28;20044;-69
2022/03/13 02:29:22;;;;;;;5.93;4.15;;;20.00;49.20;;;;;;5078226;28;20052;-69
2022/03/13 02:31:49;;;;;;;6.50;4.32;;;19.90;49.30;;;;;;5078451;28;20100;-69
2022/03/13 02:34:19;;;;;;;5.53;3.92;;;20.00;49.40;;;;;;5079221;28;20045;-69
2022/03/13 02:36:49;;;;;;;7.15;4.32;;;19.90;49.40;;;;;;5078296;28;20045;-69
2022/03/13 02:39:15;;;;;;;7.65;4.47;;;19.80;49.30;;;;;;5078995;28;20137;-69
2022/03/13 02:41:43;;;;;;;5.22;4.25;;;19.90;49.40;;;;;;5078807;28;20066;-68
2022/03/13 02:44:12;;;;;;;7.53;4.68;;;19.90;49.30;;;;;;5078328;28;20070;-69
2022/03/13 02:47:00;;;;;;;7.53;3.92;;;19.80;49.10;;;;;;5078966;28;20056;-69
2022/03/13 02:49:28;;;;;;;8.98;4.50;;;19.80;49.00;;;;;;5078822;28;20067;-69
2022/03/13 02:51:59;;;;;;;8.38;4.22;;;19.80;48.90;;;;;;5078551;28;20051;-69
2022/03/13 02:54:25;;;;;;;6.50;4.13;;;19.90;48.90;;;;;;5078818;28;20061;-69
2022/03/13 02:56:51;;;;;;;6.30;4.20;;;19.80;48.70;;;;;;5078852;28;20059;-69
2022/03/13 02:59:18;;;;;;;5.95;4.15;;;19.80;48.60;;;;;;5078662;28;20033;-69
2022/03/13 03:01:44;;;;;;;5.32;3.83;;;19.90;48.60;;;;;;5083785;28;20056;-69
2022/03/13 03:04:12;;;;;;;6.93;4.20;;;19.90;48.60;;;;;;5098515;28;20051;-69
2022/03/13 03:06:48;;;;;;;8.98;4.40;;;20.00;48.50;;;;;;5098618;28;20051;-69
2022/03/13 03:09:18;;;;;;;6.57;4.35;;;19.90;48.50;;;;;;5098667;28;20040;-69
2022/03/13 03:11:45;;;;;;;6.45;4.35;;;19.90;48.60;;;;;;5097927;28;20097;-69
2022/03/13 03:14:11;;;;;;;7.20;4.20;;;19.90;48.60;;;;;;5098210;28;20058;-68
2022/03/13 03:16:38;;;;;;;7.72;5.28;;;19.90;48.80;;;;;;5098917;28;20110;-68
2022/03/13 03:19:04;;;;;;;7.18;3.92;;;19.80;48.70;;;;;;5099062;28;20037;-69
2022/03/13 03:21:31;;;;;;;7.68;4.07;;;19.80;48.80;;;;;;5080936;28;20086;-69
2022/03/13 03:23:57;;;;;;;9.13;4.43;;;19.80;48.80;;;;;;5098275;28;20063;-69
2022/03/13 03:26:24;;;;;;;5.75;3.80;;;19.70;48.90;;;;;;5098263;28;20132;-69
2022/03/13 03:28:50;;;;;;;7.45;4.65;;;19.70;49.00;;;;;;5098311;28;20041;-69
2022/03/13 03:31:17;;;;;;;8.82;4.85;;;19.70;48.90;;;;;;5098181;28;20055;-68
2022/03/13 03:33:43;;;;;;;7.53;4.15;;;19.70;48.90;;;;;;5097797;28;20041;-69
2022/03/13 03:36:15;;;;;;;12.13;4.00;;;19.70;48.70;;;;;;5097528;28;20048;-69
2022/03/13 03:38:42;;;;;;;6.00;4.00;;;19.70;48.60;;;;;;5097695;28;20045;-69
2022/03/13 03:41:09;;;;;;;8.82;4.97;;;19.80;48.50;;;;;;5096875;28;20116;-69
2022/03/13 03:43:35;;;;;;;6.25;4.20;;;19.70;48.40;;;;;;5097848;28;20040;-69
2022/03/13 03:46:01;;;;;;;8.52;4.95;;;19.70;48.30;;;;;;5097950;28;20065;-69
2022/03/13 03:48:27;;;;;;;10.38;5.50;;;19.70;48.30;;;;;;5096876;28;20032;-69
2022/03/13 03:50:53;;;;;;;8.85;4.90;;;19.70;48.40;;;;;;5091352;28;20071;-69
2022/03/13 03:53:19;;;;;;;9.80;5.40;;;19.70;48.60;;;;;;5092697;28;20033;-69
2022/03/13 03:55:46;;;;;;;6.88;4.40;;;19.70;48.60;;;;;;5097484;28;20100;-69
2022/03/13 03:58:13;;;;;;;8.23;5.45;;;19.60;48.60;;;;;;5097750;28;20037;-69
2022/03/13 04:00:39;;;;;;;9.02;5.35;;;19.60;48.70;;;;;;5097669;28;20024;-68
2022/03/13 04:03:05;;;;;;;7.75;4.88;;;19.60;48.50;;;;;;5097142;28;20067;-68
2022/03/13 04:05:32;;;;;;;12.05;5.10;;;19.70;48.40;;;;;;5097593;28;20048;-69
2022/03/13 04:07:58;;;;;;;9.90;5.07;;;19.70;48.20;;;;;;5097530;28;20040;-69
2022/03/13 04:10:25;;;;;;;11.38;5.50;;;19.70;48.10;;;;;;5097153;28;20044;-68
2022/03/13 04:12:51;;;;;;;9.45;4.65;;;19.80;48.00;;;;;;5097224;28;20139;-69
2022/03/13 04:15:17;;;;;;;9.73;4.85;;;19.80;47.90;;;;;;5097311;28;20078;-69
2022/03/13 04:17:44;;;;;;;11.68;6.18;;;19.80;47.80;;;;;;5097155;28;20047;-69
2022/03/13 04:20:11;;;;;;;7.97;4.82;;;19.80;47.70;;;;;;5097115;28;20044;-69
2022/03/13 04:22:37;;;;;;;9.75;5.43;;;19.80;47.60;;;;;;5097026;28;20041;-69
2022/03/13 04:25:04;;;;;;;9.38;5.22;;;19.90;47.70;;;;;;5096976;28;20067;-69
2022/03/13 04:27:31;;;;;;;11.88;5.78;;;19.90;47.60;;;;;;5096884;28;20112;-69
2022/03/13 04:29:59;;;;;;;9.13;5.72;;;19.90;47.40;;;;;;5096691;28;20036;-69
2022/03/13 04:32:25;;;;;;;9.75;6.28;;;20.00;47.40;;;;;;5079515;28;20041;-68
2022/03/13 04:34:51;;;;;;;11.95;7.05;;;19.90;47.50;;;;;;5096739;28;20048;-69
2022/03/13 04:37:18;;;;;;;9.35;5.55;;;19.90;47.40;;;;;;5096865;28;20044;-69
2022/03/13 04:39:44;;;;;;;14.27;6.07;;;19.90;47.60;;;;;;5079684;28;20036;-69
2022/03/13 04:42:11;;;;;;;10.27;5.53;;;20.00;47.60;;;;;;5096841;28;20078;-69
2022/03/13 04:44:37;;;;;;;10.32;6.35;;;20.00;47.50;;;;;;5096539;28;20041;-69
2022/03/13 04:47:03;;;;;;;13.68;5.82;;;19.90;47.60;;;;;;5096959;28;20086;-69
2022/03/13 04:49:29;;;;;;;10.30;5.97;;;19.90;47.80;;;;;;5096892;28;20068;-69
2022/03/13 04:51:57;;;;;;;10.75;5.93;;;19.90;47.90;;;;;;5095822;28;20134;-69
2022/03/13 04:54:24;;;;;;;12.95;6.70;;;19.80;47.90;;;;;;5096496;28;20044;-69
2022/03/13 04:56:50;;;;;;;12.45;6.57;;;19.80;47.80;;;;;;5096777;28;20070;-69
2022/03/13 04:59:16;;;;;;;14.65;5.90;;;19.80;47.60;;;;;;5096541;28;20043;-69
2022/03/13 05:01:42;;;;;;;8.57;5.03;;;19.90;47.70;;;;;;5075177;28;20068;-69
2022/03/13 05:04:08;;;;;;;14.75;6.05;;;20.00;47.50;;;;;;5075685;28;20044;-69
2022/03/13 05:06:36;;;;;;;11.00;6.20;;;20.20;47.20;;;;;;5075703;28;20094;-70
2022/03/13 05:09:06;;;;;;;10.63;5.68;;;20.20;46.70;;;;;;5075603;28;20082;-69
2022/03/13 05:11:32;;;;;;;7.07;5.10;;;20.40;46.80;;;;;;5074740;28;20107;-69
2022/03/13 05:13:58;;;;;;;15.18;6.80;;;20.40;46.80;;;;;;5074645;28;20071;-68
2022/03/13 05:16:24;;;;;;;11.95;5.57;;;20.50;46.70;;;;;;5075702;28;20033;-69
2022/03/13 05:18:50;;;;;;;12.38;5.95;;;20.50;46.90;;;;;;5075463;28;20044;-68
2022/03/13 05:21:18;;;;;;;10.50;5.55;;;20.40;47.00;;;;;;5075681;28;20048;-67
2022/03/13 05:23:45;;;;;;;8.82;4.80;;;20.50;50.40;;;;;;5074920;28;20037;-67
2022/03/13 05:26:11;;;;;;;8.02;4.50;;;20.90;50.80;;;;;;5075318;28;20032;-68
2022/03/13 05:28:37;;;;;;;13.98;5.55;;;21.30;55.20;;;;;;5075729;28;20100;-68
2022/03/13 05:31:04;;;;;;;8.77;4.65;;;21.50;52.60;;;;;;5075679;28;20059;-68
2022/03/13 05:33:30;;;;;;;7.57;4.70;;;21.50;49.40;;;;;;5075514;28;20029;-69
2022/03/13 05:35:58;;;;;;;7.75;5.03;;;21.60;45.30;;;;;;5075571;28;20040;-68
2022/03/13 05:38:24;;;;;;;6.78;4.93;;;21.50;43.60;;;;;;5075580;28;20041;-68
2022/03/13 05:40:52;;;;;;;8.35;5.15;;;21.30;42.00;;;;;;5075408;28;20037;-68
2022/03/13 05:43:22;;;;;;;7.47;5.03;;;21.20;41.80;;;;;;5075661;28;20041;-68
2022/03/13 05:45:48;;;;;;;9.60;5.47;;;21.10;42.20;;;;;;5075486;28;20179;-68
2022/03/13 05:48:17;;;;;;;8.60;5.10;;;20.90;42.90;;;;;;5075406;28;20100;-68
2022/03/13 05:50:45;;;;;;;9.88;5.00;;;21.00;43.80;;;;;;5074678;28;20037;-69
2022/03/13 05:53:11;;;;;;;10.13;5.13;;;20.70;44.40;;;;;;5075559;28;20037;-68
2022/03/13 05:55:37;;;;;;;9.88;4.18;;;20.70;44.90;;;;;;5075183;28;20079;-69
2022/03/13 05:58:04;;;;;;;10.73;5.65;;;20.60;45.20;;;;;;5075520;28;20041;-69
2022/03/13 06:00:32;;;;;;;9.18;5.10;;;20.60;45.50;;;;;;5074671;28;20048;-69
2022/03/13 06:02:59;;;;;;;8.75;5.65;;;20.60;46.10;;;;;;5093078;28;20063;-68
2022/03/13 06:05:26;;;;;;;8.30;4.68;;;20.60;47.90;;;;;;5099242;28;20075;-70
2022/03/13 06:07:52;;;;;;;6.32;4.18;;;20.60;43.00;;;;;;5099117;28;20048;-69
2022/03/13 06:10:19;;;;;;;3.58;2.97;;;20.70;41.30;;;;;;5081727;28;20036;-69
2022/03/13 06:12:45;;;;;;;8.45;3.88;;;20.80;40.90;;;;;;5098835;28;20037;-69
2022/03/13 06:15:12;;;;;;;5.78;4.30;;;20.80;40.10;;;;;;5096123;28;20055;-72
2022/03/13 06:17:43;;;;;;;8.25;5.10;;;20.80;37.60;;;;;;5098673;28;20039;-69
2022/03/13 06:20:11;;;;;;;5.03;3.13;;;20.90;36.00;;;;;;5098808;28;20050;-69
2022/03/13 06:22:38;;;;;;;8.35;4.65;;;20.70;36.60;;;;;;5098689;28;20041;-70
2022/03/13 06:25:06;;;;;;;7.20;4.45;;;20.70;37.30;;;;;;5098460;28;20040;-69
2022/03/13 06:27:32;;;;;;;7.00;4.22;;;20.80;41.20;;;;;;5098749;28;20040;-69
2022/03/13 06:30:01;;;;;;;6.40;4.03;;;21.00;42.10;;;;;;5098557;28;20059;-69
2022/03/13 06:32:28;;;;;;;5.22;4.05;;;21.00;36.90;;;;;;5080905;28;20070;-69
2022/03/13 06:34:54;;;;;;;7.70;3.55;;;21.00;35.00;;;;;;5097647;28;20100;-68
2022/03/13 06:37:21;;;;;;;8.82;4.88;;;20.90;35.70;;;;;;5098257;28;20044;-69
2022/03/13 06:39:47;;;;;;;7.65;4.43;;;20.90;46.90;;;;;;5098450;28;20040;-69
2022/03/13 06:42:13;;;;;;;8.70;4.40;;;21.00;49.40;;;;;;5098428;28;20054;-69
2022/03/13 06:44:40;;;;;;;9.48;4.93;;;21.20;49.10;;;;;;5097846;28;20108;-69
2022/03/13 06:47:07;;;;;;;10.65;5.00;;;21.30;49.20;;;;;;5087570;28;20054;-69
2022/03/13 06:49:33;;;;;;;9.18;5.60;;;21.40;49.00;;;;;;5095147;28;20044;-69
2022/03/13 06:51:59;;;;;;;9.73;5.13;;;21.30;50.10;;;;;;5097441;28;20079;-69
2022/03/13 06:54:25;;;;;;;10.90;5.30;;;21.30;51.80;;;;;;5097723;28;20059;-66
2022/03/13 06:56:54;;;;;;;9.45;5.35;;;21.30;51.50;;;;;;5090123;28;20036;-69
2022/03/13 06:59:20;;;;;;;11.40;4.82;;;21.20;51.60;;;;;;5098076;28;20128;-69
2022/03/13 07:01:46;;;;;;;11.60;5.40;;;21.10;52.60;;;;;;5097932;28;20053;-69
2022/03/13 07:04:14;;;;;;;7.20;4.68;;;21.20;52.90;;;;;;5097827;28;20064;-69
2022/03/13 07:06:41;;;;;;;7.10;5.18;;;21.00;51.40;;;;;;5095097;28;20096;-69
2022/03/13 07:09:09;;;;;;;7.32;4.45;;;21.00;52.40;;;;;;5097706;28;20066;-69
2022/03/13 07:11:36;;;;;;;9.43;4.55;;;21.00;53.10;;;;;;5097152;28;20044;-69
2022/03/13 07:14:07;;;;;;;8.32;4.35;;;20.90;54.40;;;;;;5096763;28;20116;-68
2022/03/13 07:16:33;;;;;;;7.15;4.07;;;20.90;54.80;;;;;;5097397;28;20043;-69
2022/03/13 07:18:59;;;;;;;8.30;5.35;;;20.90;54.80;;;;;;5097204;28;20096;-70
2022/03/13 07:21:26;;;;;;;9.60;5.00;;;21.00;53.30;;;;;;5097214;28;20070;-68
2022/03/13 07:23:52;;;;;;;9.60;4.72;;;20.80;54.50;;;;;;5097352;28;20041;-69
2022/03/13 07:26:17;;;;;;;13.57;5.10;;;20.80;54.90;;;;;;5097168;28;20064;-69
2022/03/13 07:28:44;;;;;;;7.20;4.38;;;20.80;54.80;;;;;;5097647;28;20100;-69
2022/03/13 07:31:11;;;;;;;7.35;4.93;;;20.90;55.40;;;;;;5097460;28;20100;-69
2022/03/13 07:33:37;;;;;;;7.57;4.47;;;20.80;55.40;;;;;;5097320;28;20073;-69
2022/03/13 07:36:03;;;;;;;9.98;5.10;;;21.00;57.80;;;;;;5097394;28;20041;-69
2022/03/13 07:38:29;;;;;;;13.63;5.43;;;21.00;55.60;;;;;;5097322;28;20032;-68
2022/03/13 07:40:56;;;;;;;3.40;2.20;;;20.90;55.60;;;;;;5097163;28;20036;-69
2022/03/13 07:43:22;;;;;;;10.77;5.22;;;21.00;56.20;;;;;;5097198;28;20036;-70
2022/03/13 07:45:49;;;;;;;11.70;7.10;;;21.10;56.50;;;;;;5097114;28;20070;-69
2022/03/13 07:48:16;;;;;;;16.95;7.57;;;21.20;54.70;;;;;;5097111;28;20071;-70
2022/03/13 07:50:43;;;;;;;8.77;5.38;;;21.40;52.40;;;;;;5096999;28;20036;-71
2022/03/13 07:53:09;;;;;;;3.33;1.92;;;21.40;51.20;;;;;;5097036;28;20040;-70
2022/03/13 07:55:35;;;;;;;45.88;21.90;;;21.60;48.20;;;;;;5096904;28;20040;-69
2022/03/13 07:58:01;;;;;;;33.03;13.50;;;21.50;48.30;;;;;;5096913;28;20104;-68
2022/03/13 08:00:28;;;;;;;68.82;26.20;;;21.50;47.00;;;;;;5096733;28;20086;-68
2022/03/13 08:02:54;;;;;;;10.85;6.97;;;21.50;44.90;;;;;;5096602;28;20048;-69
2022/03/13 08:05:24;;;;;;;9.95;6.50;;;21.50;37.30;;;;;;5096173;28;20040;-68
2022/03/13 08:07:52;;;;;;;9.30;4.88;;;21.40;37.40;;;;;;5096579;28;20036;-69
2022/03/13 08:10:23;;;;;;;6.90;5.05;;;21.30;43.50;;;;;;5096047;28;20040;-69
2022/03/13 08:12:50;;;;;;;9.25;5.60;;;21.20;39.40;;;;;;5096676;28;20056;-69
2022/03/13 08:15:17;;;;;;;13.05;7.35;;;21.30;45.10;;;;;;5096569;28;20067;-69
2022/03/13 08:17:43;;;;;;;16.73;12.13;;;21.40;43.50;;;;;;5096918;28;20068;-70
2022/03/13 08:20:10;;;;;;;17.67;12.23;;;21.50;44.80;;;;;;5096518;28;20041;-69
2022/03/13 08:22:37;;;;;;;10.98;5.60;;;21.50;44.90;;;;;;5095928;28;20064;-69
2022/03/13 08:25:05;;;;;;;5.28;3.83;;;21.50;45.40;;;;;;5095815;28;20045;-69
2022/03/13 08:27:31;;;;;;;5.20;3.92;;;21.50;45.80;;;;;;5092788;28;20048;-69
2022/03/13 08:29:58;;;;;;;8.57;4.95;;;21.40;46.30;;;;;;5094714;28;20036;-69
2022/03/13 08:32:25;;;;;;;9.88;5.10;;;21.50;46.30;;;;;;5096377;28;20044;-70
2022/03/13 08:34:52;;;;;;;7.13;5.07;;;21.70;46.30;;;;;;5096375;28;20044;-70
2022/03/13 08:37:18;;;;;;;8.48;5.28;;;21.60;46.40;;;;;;5096121;28;20040;-70
2022/03/13 08:39:44;;;;;;;8.10;5.05;;;21.70;46.60;;;;;;5096234;28;20040;-70
2022/03/13 08:42:10;;;;;;;10.30;5.05;;;21.70;46.70;;;;;;5096285;28;20047;-69
2022/03/13 08:44:37;;;;;;;7.05;4.38;;;21.80;46.00;;;;;;5096257;28;20036;-69
2022/03/13 08:47:04;;;;;;;10.82;5.03;;;21.80;46.90;;;;;;5095954;28;20087;-70
2022/03/13 08:49:30;;;;;;;7.18;4.63;;;21.90;47.30;;;;;;5096009;28;20068;-70
2022/03/13 08:51:56;;;;;;;10.02;4.35;;;21.90;47.50;;;;;;5096110;28;20046;-69
2022/03/13 08:54:22;;;;;;;5.60;4.50;;;21.90;51.30;;;;;;5096093;28;20075;-68
2022/03/13 08:56:49;;;;;;;11.73;4.50;;;21.90;50.40;;;;;;5095854;28;20040;-66
2022/03/13 08:59:16;;;;;;;10.80;6.35;;;21.90;50.40;;;;;;5095905;28;20032;-70
2022/03/13 09:01:44;;;;;;;7.75;4.32;;;21.90;49.60;;;;;;5095492;28;20067;-70
2022/03/13 09:04:10;;;;;;;11.80;5.35;;;21.80;48.30;;;;;;5095856;28;20044;-70
2022/03/13 09:06:39;;;;;;;8.88;5.40;;;21.70;49.80;;;;;;5095846;28;20052;-70
2022/03/13 09:09:12;;;;;;;8.18;4.70;;;21.70;49.80;;;;;;5095821;28;20072;-70
2022/03/13 09:11:39;;;;;;;7.57;5.25;;;21.80;50.40;;;;;;5095849;28;20028;-69
2022/03/13 09:14:06;;;;;;;7.72;5.55;;;21.80;50.30;;;;;;5095888;28;20060;-70
2022/03/13 09:16:35;;;;;;;8.65;4.70;;;21.80;50.50;;;;;;5095887;28;20040;-68
2022/03/13 09:19:02;;;;;;;23.48;12.05;;;21.80;50.60;;;;;;5095655;28;20044;-69
2022/03/13 09:21:31;;;;;;;11.65;5.82;;;21.50;50.40;;;;;;5078280;28;20060;-69
2022/03/13 09:23:57;;;;;;;6.50;4.63;;;21.50;50.80;;;;;;5095847;28;20046;-69
2022/03/13 09:26:23;;;;;;;7.88;5.30;;;21.50;51.10;;;;;;5095687;28;20050;-71
2022/03/13 09:28:49;;;;;;;9.05;5.22;;;21.50;51.30;;;;;;5095733;28;20042;-71
2022/03/13 09:31:16;;;;;;;9.60;6.80;;;21.50;51.10;;;;;;5095493;28;20119;-71
2022/03/13 09:33:42;;;;;;;17.83;9.18;;;21.50;51.40;;;;;;5095077;28;20064;-71
2022/03/13 09:36:09;;;;;;;12.27;8.07;;;21.40;51.40;;;;;;5095481;28;20111;-70
2022/03/13 09:38:35;;;;;;;7.20;5.55;;;21.40;51.60;;;;;;5098231;28;20046;-69
2022/03/13 09:41:01;;;;;;;16.42;8.18;;;21.40;51.60;;;;;;5099522;28;20109;-70
2022/03/13 09:43:28;;;;;;;13.65;7.57;;;21.40;51.40;;;;;;5099454;28;20056;-69
2022/03/13 09:45:54;;;;;;;10.10;6.63;;;21.50;51.60;;;;;;5099327;28;20112;-70
2022/03/13 09:48:21;;;;;;;13.00;6.60;;;21.40;51.80;;;;;;5099469;28;20086;-70
2022/03/13 09:50:48;;;;;;;9.95;6.43;;;21.40;51.40;;;;;;5099164;28;20052;-69
2022/03/13 09:53:14;;;;;;;7.78;5.13;;;21.40;51.70;;;;;;5099399;28;20036;-70
2022/03/13 09:55:40;;;;;;;5.90;4.22;;;21.50;51.60;;;;;;5099263;28;20051;-69
2022/03/13 09:58:09;;;;;;;8.23;5.40;;;21.50;51.50;;;;;;5098566;28;20052;-70
2022/03/13 10:00:36;;;;;;;47.47;13.00;;;21.80;50.30;;;;;;5098510;28;20040;-70
2022/03/13 10:03:05;;;;;;;62.15;15.25;;;22.40;49.80;;;;;;5099037;28;20048;-72
2022/03/13 10:05:46;;;;;;;11.07;6.18;;;23.00;43.30;;;;;;5099318;28;20048;-69
2022/03/13 10:08:13;;;;;;;11.48;6.00;;;23.00;39.50;;;;;;5098873;28;20079;-68
2022/03/13 10:10:48;;;;;;;10.20;5.50;;;23.00;34.40;;;;;;5098729;28;20041;-70
2022/03/13 10:13:35;;;;;;;12.52;6.93;;;23.00;43.50;;;;;;5099073;28;20036;-69
2022/03/13 10:16:02;;;;;;;12.93;6.25;;;23.20;38.30;;;;;;5098786;28;20059;-69
2022/03/13 10:18:29;;;;;;;8.82;5.53;;;23.10;31.10;;;;;;5098725;28;20046;-69
2022/03/13 10:21:06;;;;;;;13.68;6.10;;;23.20;29.90;;;;;;5092024;28;20028;-70
2022/03/13 10:23:33;;;;;;;12.93;6.47;;;23.00;30.50;;;;;;5119119;28;20055;-70
2022/03/13 10:25:59;;;;;;;11.23;5.97;;;23.20;38.00;;;;;;5102363;28;20049;-71
2022/03/13 10:28:31;;;;;;;10.80;5.38;;;23.20;37.80;;;;;;5098338;28;20067;-70
2022/03/13 10:31:00;;;;;;;10.50;5.82;;;23.30;37.20;;;;;;5098608;28;20036;-71
2022/03/13 10:33:27;;;;;;;48.55;25.25;;;23.60;46.10;;;;;;5098640;28;20071;-70
2022/03/13 10:36:10;;;;;;;40.30;21.33;;;23.80;49.80;;;;;;5098483;28;20040;-70
2022/03/13 10:38:37;;;;;;;35.53;18.90;;;24.00;49.00;;;;;;5098152;28;20060;-68
2022/03/13 10:41:08;;;;;;;31.77;16.70;;;24.00;38.50;;;;;;5097475;28;20041;-70
2022/03/13 10:43:37;;;;;;;38.83;23.23;;;23.90;45.80;;;;;;5096636;28;20028;-71
2022/03/13 10:46:03;;;;;;;15.77;8.27;;;23.80;38.20;;;;;;5098652;28;20104;-70
2022/03/13 10:48:36;;;;;;;16.75;8.18;;;23.80;30.00;;;;;;5097602;28;20044;-69
2022/03/13 10:51:08;;;;;;;21.55;12.80;;;23.70;33.40;;;;;;5080025;28;20066;-70
2022/03/13 10:53:39;;;;;;;11.35;7.00;;;23.60;30.70;;;;;;5097286;28;20120;-69
2022/03/13 10:56:13;;;;;;;13.88;6.95;;;23.70;28.60;;;;;;5097990;28;20040;-70
2022/03/13 10:58:41;;;;;;;7.18;4.68;;;23.70;29.50;;;;;;5087126;28;20037;-70
2022/03/13 11:01:12;;;;;;;15.10;6.53;;;23.60;29.20;;;;;;5077674;28;20044;-70
2022/03/13 11:03:56;;;;;;;10.32;6.00;;;23.70;30.10;;;;;;5077799;28;20052;-72
2022/03/13 11:06:24;;;;;;;9.82;5.93;;;23.60;42.30;;;;;;5077938;28;20045;-70
2022/03/13 11:08:55;;;;;;;8.23;5.53;;;23.60;44.20;;;;;;5077963;28;20029;-70
2022/03/13 11:11:23;;;;;;;8.90;5.65;;;23.40;44.40;;;;;;5060062;28;20049;-70
2022/03/13 11:13:59;;;;;;;19.02;8.55;;;23.40;31.80;;;;;;5076710;28;20037;-69
2022/03/13 11:16:34;;;;;;;12.23;7.22;;;23.40;32.50;;;;;;5077849;28;20041;-69
2022/03/13 11:19:08;;;;;;;8.57;5.57;;;23.40;43.70;;;;;;5077587;28;20063;-70
2022/03/13 11:21:35;;;;;;;8.68;5.35;;;23.50;44.10;;;;;;5077394;28;20289;-71
2022/03/13 11:24:02;;;;;;;8.18;5.75;;;23.30;44.90;;;;;;5077561;28;20044;-70
2022/03/13 11:26:30;;;;;;;6.95;5.55;;;23.30;46.30;;;;;;5077623;28;20041;-70
2022/03/13 11:28:57;;;;;;;8.70;5.63;;;23.30;47.00;;;;;;5104602;28;20103;-70
2022/03/13 11:31:43;;;;;;;10.48;6.90;;;23.10;47.20;;;;;;5117584;28;20035;-70
2022/03/13 11:34:16;;;;;;;18.92;11.00;;;23.10;47.60;;;;;;5117819;28;20044;-70
2022/03/13 11:36:49;;;;;;;9.25;5.82;;;23.20;47.50;;;;;;5117523;28;20047;-71
2022/03/13 11:39:30;;;;;;;10.23;6.38;;;23.10;48.00;;;;;;5111833;28;20037;-68
2022/03/13 11:41:58;;;;;;;6.18;4.80;;;23.10;48.20;;;;;;5096539;28;20048;-70
2022/03/13 11:44:28;;;;;;;7.72;5.13;;;23.00;48.40;;;;;;5087362;28;20063;-69
2022/03/13 11:46:58;;;;;;;9.85;5.45;;;22.90;48.10;;;;;;5095850;28;20044;-69
2022/03/13 11:49:30;;;;;;;9.27;5.55;;;22.90;48.80;;;;;;5096468;28;20032;-72
2022/03/13 11:52:09;;;;;;;8.10;5.80;;;22.90;49.20;;;;;;5096279;28;20074;-70
2022/03/13 11:54:55;;;;;;;7.22;5.00;;;22.90;49.20;;;;;;5095761;28;20087;-72
2022/03/13 11:57:24;;;;;;;9.05;5.57;;;22.90;48.70;;;;;;5094190;28;20091;-71
2022/03/13 12:00:15;;;;;;;6.95;5.05;;;22.90;49.50;;;;;;5096496;28;20021;-71
2022/03/13 12:02:44;;;;;;;7.72;5.43;;;22.90;49.60;;;;;;5096997;28;20052;-71
2022/03/13 12:05:25;;;;;;;8.60;5.15;;;22.90;49.50;;;;;;5096807;28;20094;-70
2022/03/13 12:07:57;;;;;;;8.63;5.75;;;22.90;49.70;;;;;;5096154;28;20044;-70
2022/03/13 12:10:32;;;;;;;6.72;4.93;;;22.80;49.20;;;;;;5084395;28;20044;-70
2022/03/13 12:13:17;;;;;;;7.13;5.25;;;22.80;49.20;;;;;;5096158;28;20045;-69
2022/03/13 12:15:45;;;;;;;8.48;5.38;;;22.80;49.40;;;;;;5096067;28;20100;-70
2022/03/13 12:18:15;;;;;;;7.80;5.20;;;22.90;51.50;;;;;;5096101;28;20066;-71
2022/03/13 12:20:45;;;;;;;9.73;5.60;;;22.80;53.00;;;;;;5096332;28;20037;-71
2022/03/13 12:23:24;;;;;;;6.30;4.80;;;22.90;51.60;;;;;;5096590;28;20044;-72
2022/03/13 12:25:53;;;;;;;6.75;4.40;;;22.80;51.20;;;;;;5095156;28;20041;-71
2022/03/13 12:28:31;;;;;;;8.88;4.90;;;22.80;51.00;;;;;;5094346;28;20039;-71
2022/03/13 12:31:04;;;;;;;9.10;5.18;;;22.70;50.50;;;;;;5096415;28;20042;-70
2022/03/13 12:33:33;;;;;;;6.03;4.78;;;22.80;50.70;;;;;;5096576;28;20070;-71
2022/03/13 12:36:01;;;;;;;9.32;5.00;;;22.80;50.70;;;;;;5096381;28;20036;-72
2022/03/13 12:38:30;;;;;;;8.00;4.72;;;22.80;48.90;;;;;;5096388;28;20040;-71
2022/03/13 12:40:59;;;;;;;8.57;4.85;;;22.80;50.80;;;;;;5097424;28;20051;-72
2022/03/13 12:43:46;;;;;;;8.48;5.15;;;22.80;50.60;;;;;;5086974;28;20029;-71
2022/03/13 12:46:13;;;;;;;9.15;5.72;;;22.80;50.30;;;;;;5095901;28;20124;-72
2022/03/13 12:48:49;;;;;;;22.60;12.48;;;22.80;50.60;;;;;;5095530;28;20063;-71